createdAt,value
2023-05-10T00:00:27.532Z,5.47
2023-05-10T00:02:54.517Z,6.30
2023-05-10T00:05:21.485Z,5.60
2023-05-10T00:07:48.384Z,4.97
2023-05-10T00:10:15.561Z,5.90
2023-05-10T00:12:43.343Z,5.30
2023-05-10T00:15:11.721Z,4.73
2023-05-10T00:17:38.660Z,5.60
2023-05-10T00:20:06.900Z,5.27
2023-05-10T00:22:33.932Z,5.43
2023-05-10T00:25:00.948Z,5.50
2023-05-10T00:27:27.902Z,5.87
2023-05-10T00:29:54.751Z,6.07
2023-05-10T00:32:21.994Z,6.07
2023-05-10T00:34:48.957Z,5.97
2023-05-10T00:37:15.856Z,5.80
2023-05-10T00:39:42.736Z,5.97
2023-05-10T00:42:09.649Z,5.60
2023-05-10T00:44:36.541Z,5.60
2023-05-10T00:47:03.510Z,5.73
2023-05-10T00:49:30.797Z,6.43
2023-05-10T00:51:58.082Z,5.70
2023-05-10T00:54:25.311Z,6.30
2023-05-10T00:56:52.850Z,5.40
2023-05-10T00:59:20.440Z,5.80
2023-05-10T01:01:48.121Z,6.43
2023-05-10T01:04:16.236Z,5.90
2023-05-10T01:06:43.968Z,6.80
2023-05-10T01:09:12.749Z,6.20
2023-05-10T01:11:40.540Z,5.37
2023-05-10T01:14:08.624Z,6.30
2023-05-10T01:16:39.449Z,7.00
2023-05-10T01:19:25.278Z,5.63
2023-05-10T01:22:06.918Z,6.10
2023-05-10T01:24:40.497Z,7.30
2023-05-10T01:27:52.640Z,5.70
2023-05-10T01:30:41.451Z,6.70
2023-05-10T01:33:44.354Z,5.90
2023-05-10T01:36:27.090Z,6.23
2023-05-10T01:39:20.206Z,5.43
2023-05-10T01:42:09.763Z,6.63
2023-05-10T01:45:12.334Z,6.17
2023-05-10T01:47:44.945Z,6.10
2023-05-10T01:50:20.138Z,5.83
2023-05-10T01:52:55.628Z,6.57
2023-05-10T01:55:28.735Z,6.60
2023-05-10T01:58:07.636Z,6.10
2023-05-10T02:00:36.582Z,5.83
2023-05-10T02:03:07.998Z,6.47
2023-05-10T02:05:35.792Z,6.57
2023-05-10T02:08:06.966Z,6.80
2023-05-10T02:10:36.395Z,5.60
2023-05-10T02:13:04.565Z,6.20
2023-05-10T02:15:32.559Z,6.10
2023-05-10T02:18:03.787Z,6.60
2023-05-10T02:20:32.717Z,5.53
2023-05-10T02:23:00.490Z,6.27
2023-05-10T02:25:28.390Z,6.10
2023-05-10T02:27:57.346Z,6.10
2023-05-10T02:30:24.902Z,6.40
2023-05-10T02:32:53.239Z,5.23
2023-05-10T02:35:21.127Z,6.20
2023-05-10T02:37:49.649Z,5.30
2023-05-10T02:40:18.799Z,5.90
2023-05-10T02:42:48.749Z,5.23
2023-05-10T02:45:22.946Z,6.10
2023-05-10T02:47:50.205Z,5.43
2023-05-10T02:50:17.407Z,6.10
2023-05-10T02:52:49.275Z,6.30
2023-05-10T02:55:17.844Z,6.10
2023-05-10T02:58:02.189Z,5.70
2023-05-10T03:00:29.684Z,5.53
2023-05-10T03:02:56.870Z,5.80
2023-05-10T03:05:24.384Z,6.20
2023-05-10T03:07:52.387Z,6.03
2023-05-10T03:10:20.579Z,5.70
2023-05-10T03:13:29.594Z,5.40
2023-05-10T03:16:13.523Z,5.47
2023-05-10T03:18:52.011Z,6.37
2023-05-10T03:21:21.753Z,5.73
2023-05-10T03:24:13.639Z,4.80
2023-05-10T03:26:41.364Z,5.70
2023-05-10T03:29:09.819Z,5.07
2023-05-10T03:31:36.877Z,5.80
2023-05-10T03:34:03.868Z,5.20
2023-05-10T03:36:30.832Z,5.80
2023-05-10T03:38:57.668Z,5.40
2023-05-10T03:41:26.224Z,5.20
2023-05-10T03:43:53.391Z,5.33
2023-05-10T03:46:20.279Z,6.43
2023-05-10T03:48:47.211Z,5.07
2023-05-10T03:51:14.062Z,5.90
2023-05-10T03:53:40.949Z,4.70
2023-05-10T03:56:07.834Z,5.50
2023-05-10T03:58:34.720Z,5.27
2023-05-10T04:01:01.690Z,5.23
2023-05-10T04:03:28.719Z,5.10
2023-05-10T04:06:02.870Z,5.37
2023-05-10T04:08:30.122Z,5.20
2023-05-10T04:11:10.865Z,5.07
2023-05-10T04:13:38.336Z,4.90
2023-05-10T04:16:06.256Z,5.00
2023-05-10T04:18:33.152Z,4.53
2023-05-10T04:21:00.144Z,4.90
2023-05-10T04:23:28.171Z,5.00
2023-05-10T04:26:01.750Z,4.87
2023-05-10T04:28:28.855Z,4.50
2023-05-10T04:31:05.262Z,4.67
2023-05-10T04:33:32.717Z,4.90
2023-05-10T04:35:59.710Z,4.13
2023-05-10T04:38:26.913Z,4.43
2023-05-10T04:40:54.703Z,4.43
2023-05-10T04:43:21.793Z,4.30
2023-05-10T04:45:48.697Z,5.10
2023-05-10T04:48:15.596Z,4.10
2023-05-10T04:50:42.476Z,4.00
2023-05-10T04:53:09.345Z,4.40
2023-05-10T04:55:37.175Z,4.67
2023-05-10T04:58:04.100Z,4.27
2023-05-10T05:00:31.425Z,5.23
2023-05-10T05:02:58.423Z,5.03
2023-05-10T05:05:25.450Z,5.17
2023-05-10T05:07:52.481Z,4.77
2023-05-10T05:10:19.653Z,4.20
2023-05-10T05:12:46.711Z,4.67
2023-05-10T05:15:13.770Z,3.47
2023-05-10T05:17:40.722Z,3.50
2023-05-10T05:20:09.462Z,3.70
2023-05-10T05:22:38.146Z,3.40
2023-05-10T05:25:05.938Z,3.53
2023-05-10T05:27:34.111Z,3.80
2023-05-10T05:30:01.054Z,3.53
2023-05-10T05:32:28.064Z,3.63
2023-05-10T05:34:55.012Z,3.63
2023-05-10T05:37:22.525Z,3.17
2023-05-10T05:39:49.869Z,3.80
2023-05-10T05:42:18.781Z,3.30
2023-05-10T05:44:46.040Z,3.80
2023-05-10T05:47:13.085Z,3.37
2023-05-10T05:49:40.748Z,2.80
2023-05-10T05:52:07.656Z,3.53
2023-05-10T05:54:34.627Z,2.90
2023-05-10T05:57:02.253Z,2.87
2023-05-10T05:59:29.877Z,3.10
2023-05-10T06:01:56.781Z,3.20
2023-05-10T06:04:23.845Z,3.13
2023-05-10T06:06:50.759Z,3.00
2023-05-10T06:09:17.682Z,2.80
2023-05-10T06:11:44.623Z,3.23
2023-05-10T06:14:11.598Z,3.10
2023-05-10T06:16:38.647Z,3.40
2023-05-10T06:19:05.566Z,2.60
2023-05-10T06:21:32.693Z,3.00
2023-05-10T06:23:59.809Z,2.90
2023-05-10T06:26:26.692Z,3.00
2023-05-10T06:28:53.559Z,2.60
2023-05-10T06:31:20.466Z,2.57
2023-05-10T06:33:47.376Z,3.33
2023-05-10T06:36:14.335Z,2.30
2023-05-10T06:38:41.436Z,2.50
2023-05-10T06:41:08.336Z,3.00
2023-05-10T06:43:35.829Z,2.43
2023-05-10T06:46:02.792Z,2.23
2023-05-10T06:48:29.926Z,2.17
2023-05-10T06:50:56.928Z,2.27
2023-05-10T06:53:23.965Z,2.40
2023-05-10T06:55:51.235Z,2.20
2023-05-10T06:58:18.140Z,2.20
2023-05-10T07:00:46.571Z,2.63
2023-05-10T07:03:13.563Z,2.60
2023-05-10T07:05:40.628Z,2.20
2023-05-10T07:08:07.749Z,3.20
2023-05-10T07:10:34.760Z,2.20
2023-05-10T07:13:02.454Z,1.63
2023-05-10T07:15:29.681Z,2.30
2023-05-10T07:17:56.709Z,2.23
2023-05-10T07:20:23.726Z,3.33
2023-05-10T07:22:50.834Z,2.07
2023-05-10T07:25:17.882Z,1.80
2023-05-10T07:27:44.935Z,1.97
2023-05-10T07:30:12.808Z,1.90
2023-05-10T07:32:40.501Z,1.87
2023-05-10T07:35:08.110Z,2.00
2023-05-10T07:37:35.054Z,2.13
2023-05-10T07:40:02.101Z,2.37
2023-05-10T07:42:29.064Z,2.33
2023-05-10T07:44:56.022Z,1.97
2023-05-10T07:47:23.017Z,2.30
2023-05-10T07:49:49.938Z,1.53
2023-05-10T07:52:16.878Z,1.70
2023-05-10T07:54:43.776Z,1.70
2023-05-10T07:57:11.130Z,2.00
2023-05-10T07:59:38.010Z,2.47
2023-05-10T08:02:05.007Z,2.03
2023-05-10T08:04:31.898Z,2.00
2023-05-10T08:06:58.789Z,2.10
2023-05-10T08:09:25.713Z,2.73
2023-05-10T08:11:52.582Z,1.80
2023-05-10T08:14:19.516Z,2.33
2023-05-10T08:16:46.397Z,2.10
2023-05-10T08:19:13.270Z,1.90
2023-05-10T08:21:41.534Z,1.83
2023-05-10T08:24:08.613Z,1.83
2023-05-10T08:26:35.628Z,1.70
2023-05-10T08:29:02.535Z,2.10
2023-05-10T08:31:29.497Z,2.27
2023-05-10T08:33:56.433Z,2.23
2023-05-10T08:36:25.154Z,1.67
2023-05-10T08:38:55.073Z,2.00
2023-05-10T08:41:23.374Z,2.50
2023-05-10T08:43:52.064Z,2.00
2023-05-10T08:46:20.815Z,2.20
2023-05-10T08:48:50.920Z,1.80
2023-05-10T08:51:26.261Z,2.10
2023-05-10T08:53:53.837Z,1.90
2023-05-10T08:56:21.774Z,1.87
2023-05-10T08:58:49.879Z,1.93
2023-05-10T09:01:18.174Z,2.00
2023-05-10T09:03:47.333Z,1.60
2023-05-10T09:06:14.781Z,1.80
2023-05-10T09:08:43.823Z,2.60
2023-05-10T09:11:12.556Z,2.00
2023-05-10T09:13:39.675Z,2.33
2023-05-10T09:16:17.499Z,1.80
2023-05-10T09:18:48.451Z,2.03
2023-05-10T09:21:15.457Z,1.87
2023-05-10T09:23:48.552Z,1.80
2023-05-10T09:26:15.862Z,1.97
2023-05-10T09:29:00.508Z,2.80
2023-05-10T09:31:52.153Z,2.13
2023-05-10T09:34:33.448Z,2.50
2023-05-10T09:37:03.665Z,2.47
2023-05-10T09:39:36.205Z,2.03
2023-05-10T09:42:08.496Z,2.00
2023-05-10T09:44:35.945Z,2.00
2023-05-10T09:47:03.756Z,1.90
2023-05-10T09:49:31.707Z,1.80
2023-05-10T09:52:09.202Z,2.30
2023-05-10T09:54:36.915Z,2.20
2023-05-10T09:57:04.120Z,1.90
2023-05-10T09:59:31.396Z,1.70
2023-05-10T10:02:00.794Z,2.37
2023-05-10T10:04:28.202Z,2.40
2023-05-10T10:07:06.125Z,2.30
2023-05-10T10:09:34.896Z,1.90
2023-05-10T10:12:05.632Z,1.53
2023-05-10T10:14:32.645Z,2.17
2023-05-10T10:19:34.521Z,2.00
2023-05-10T10:22:01.827Z,2.20
2023-05-10T10:24:28.730Z,2.30
2023-05-10T10:27:05.333Z,1.90
2023-05-10T10:29:40.128Z,2.53
2023-05-10T10:32:39.668Z,2.73
2023-05-10T10:35:09.905Z,2.00
2023-05-10T10:37:46.676Z,2.37
2023-05-10T10:40:34.891Z,1.83
2023-05-10T10:43:28.463Z,2.30
2023-05-10T10:46:18.812Z,2.10
2023-05-10T10:48:52.593Z,1.63
2023-05-10T10:51:19.660Z,1.63
2023-05-10T10:53:49.255Z,2.03
2023-05-10T10:56:16.556Z,1.80
2023-05-10T10:58:52.316Z,1.87
2023-05-10T11:01:20.632Z,2.30
2023-05-10T11:04:05.378Z,1.97
2023-05-10T11:06:36.665Z,2.30
2023-05-10T11:09:12.536Z,2.13
2023-05-10T11:11:56.410Z,2.20
2023-05-10T11:14:23.560Z,1.60
2023-05-10T11:16:50.698Z,1.80
2023-05-10T11:19:19.282Z,2.33
2023-05-10T11:22:06.224Z,2.00
2023-05-10T11:24:34.383Z,2.33
2023-05-10T11:27:01.937Z,2.30
2023-05-10T11:29:28.867Z,3.10
2023-05-10T11:31:59.877Z,2.23
2023-05-10T11:34:34.592Z,3.03
2023-05-10T11:37:02.093Z,1.90
2023-05-10T11:39:31.240Z,1.60
2023-05-10T11:41:58.754Z,2.57
2023-05-10T11:44:33.946Z,2.27
2023-05-10T11:47:02.490Z,2.17
2023-05-10T11:49:29.449Z,1.80
2023-05-10T11:52:08.583Z,2.20
2023-05-10T11:54:38.587Z,2.30
2023-05-10T11:57:05.445Z,2.13
2023-05-10T11:59:32.421Z,1.90
2023-05-10T12:01:59.672Z,2.50
2023-05-10T12:04:27.618Z,2.47
2023-05-10T12:06:54.657Z,2.40
2023-05-10T12:09:35.389Z,2.50
2023-05-10T12:12:06.927Z,2.50
2023-05-10T12:14:38.370Z,2.73
2023-05-10T12:17:05.508Z,2.00
2023-05-10T12:19:39.750Z,2.70
2023-05-10T12:22:07.302Z,2.40
2023-05-10T12:24:39.754Z,2.60
2023-05-10T12:27:09.299Z,2.30
2023-05-10T12:29:36.564Z,1.97
2023-05-10T12:32:03.753Z,2.60
2023-05-10T12:34:37.115Z,3.27
2023-05-10T12:37:05.074Z,2.70
2023-05-10T12:39:45.675Z,2.50
2023-05-10T12:42:12.902Z,2.50
2023-05-10T12:44:40.756Z,3.10
2023-05-10T12:47:08.205Z,2.87
2023-05-10T12:49:35.207Z,2.40
2023-05-10T12:52:02.384Z,2.37
2023-05-10T12:54:29.245Z,2.30
2023-05-10T12:56:56.137Z,1.97
2023-05-10T12:59:23.790Z,2.23
2023-05-10T13:01:50.820Z,1.70
2023-05-10T13:04:17.687Z,2.50
2023-05-10T13:06:44.634Z,2.20
2023-05-10T13:09:11.532Z,2.73
2023-05-10T13:11:38.711Z,2.40
2023-05-10T13:14:05.627Z,2.30
2023-05-10T13:16:33.050Z,2.50
2023-05-10T13:19:00.248Z,2.30
2023-05-10T13:21:27.718Z,2.63
2023-05-10T13:23:54.852Z,2.57
2023-05-10T13:26:22.231Z,2.30
2023-05-10T13:28:49.852Z,2.13
2023-05-10T13:31:17.449Z,2.40
2023-05-10T13:33:44.350Z,1.97
2023-05-10T13:36:11.221Z,2.50
2023-05-10T13:38:38.505Z,2.10
2023-05-10T13:41:05.652Z,2.27
2023-05-10T13:43:32.559Z,2.60
2023-05-10T13:45:59.485Z,2.47
2023-05-10T13:48:26.409Z,2.43
2023-05-10T13:50:53.507Z,2.60
2023-05-10T13:53:20.359Z,2.20
2023-05-10T13:55:48.249Z,2.30
2023-05-10T13:58:15.223Z,2.17
2023-05-10T14:00:42.183Z,2.10
2023-05-10T14:03:12.098Z,2.30
2023-05-10T14:05:39.515Z,2.10
2023-05-10T14:08:06.472Z,2.17
2023-05-10T14:10:33.371Z,2.03
2023-05-10T14:13:00.442Z,2.00
2023-05-10T14:15:27.416Z,2.10
2023-05-10T14:17:54.409Z,2.13
2023-05-10T14:20:21.330Z,2.30
2023-05-10T14:22:48.272Z,2.30
2023-05-10T14:25:16.615Z,2.40
2023-05-10T14:27:43.640Z,2.10
2023-05-10T14:30:11.185Z,2.10
2023-05-10T14:32:38.183Z,2.43
2023-05-10T14:35:06.912Z,2.00
2023-05-10T14:37:34.008Z,3.17
2023-05-10T14:40:01.367Z,2.17
2023-05-10T14:42:29.403Z,2.30
2023-05-10T14:44:56.351Z,2.47
2023-05-10T14:47:23.292Z,1.83
2023-05-10T14:49:50.198Z,2.00
2023-05-10T14:52:17.547Z,2.07
2023-05-10T14:54:44.456Z,1.93
2023-05-10T14:57:11.361Z,2.20
2023-05-10T14:59:38.210Z,2.40
2023-05-10T15:02:05.479Z,2.07
2023-05-10T15:04:33.164Z,2.20
2023-05-10T15:07:00.892Z,2.63
2023-05-10T15:09:28.744Z,2.20
2023-05-10T15:11:56.727Z,2.30
2023-05-10T15:14:23.986Z,2.20
2023-05-10T15:16:50.840Z,1.93
2023-05-10T15:19:17.742Z,2.23
2023-05-10T15:21:45.513Z,2.30
2023-05-10T15:24:12.446Z,1.90
2023-05-10T15:26:39.348Z,2.30
2023-05-10T15:29:06.292Z,2.10
2023-05-10T15:31:36.031Z,2.17
2023-05-10T15:34:03.038Z,2.10
2023-05-10T15:36:29.900Z,2.43
2023-05-10T15:38:56.867Z,2.10
2023-05-10T15:41:24.591Z,2.10
2023-05-10T15:43:51.509Z,2.27
2023-05-10T15:46:18.371Z,2.10
2023-05-10T15:48:45.242Z,1.80
2023-05-10T15:51:12.245Z,2.20
2023-05-10T15:53:46.577Z,2.77
2023-05-10T15:56:20.055Z,1.87
2023-05-10T15:58:47.064Z,2.47
2023-05-10T16:01:14.210Z,1.97
2023-05-10T16:03:41.126Z,2.57
2023-05-10T16:06:08.018Z,2.20
2023-05-10T16:08:35.412Z,2.90
2023-05-10T16:11:02.741Z,2.17
2023-05-10T16:13:30.025Z,3.30
2023-05-10T16:15:58.163Z,2.20
2023-05-10T16:18:25.251Z,2.63
2023-05-10T16:20:53.947Z,3.20
2023-05-10T16:23:21.023Z,2.60
2023-05-10T16:25:47.931Z,3.10
2023-05-10T16:28:14.833Z,3.03
2023-05-10T16:30:41.815Z,4.50
2023-05-10T16:33:08.826Z,3.40
2023-05-10T16:35:35.905Z,3.20
2023-05-10T16:38:02.987Z,3.70
2023-05-10T16:40:29.893Z,3.43
2023-05-10T16:42:57.977Z,3.30
2023-05-10T16:45:25.802Z,4.37
2023-05-10T16:47:56.022Z,4.73
2023-05-10T16:50:23.113Z,4.73
2023-05-10T16:52:50.182Z,5.00
2023-05-10T16:55:17.271Z,4.40
2023-05-10T16:57:44.376Z,4.87
2023-05-10T17:00:12.367Z,4.67
2023-05-10T17:02:39.367Z,4.73
2023-05-10T17:05:07.597Z,5.73
2023-05-10T17:07:34.716Z,4.70
2023-05-10T17:10:01.603Z,4.93
2023-05-10T17:12:28.491Z,10.27
2023-05-10T17:14:55.388Z,5.43
2023-05-10T17:17:23.487Z,11.07
2023-05-10T17:19:50.407Z,14.03
2023-05-10T17:22:17.284Z,6.27
2023-05-10T17:24:46.491Z,10.50
2023-05-10T17:27:14.796Z,5.60
2023-05-10T17:29:41.758Z,6.30
2023-05-10T17:32:11.398Z,5.23
2023-05-10T17:34:39.036Z,5.27
2023-05-10T17:37:05.900Z,5.20
2023-05-10T17:39:34.164Z,4.73
2023-05-10T17:42:01.078Z,5.43
2023-05-10T17:44:28.010Z,5.50
2023-05-10T17:46:55.086Z,5.67
2023-05-10T17:49:21.939Z,5.53
2023-05-10T17:51:48.889Z,8.07
2023-05-10T17:54:15.883Z,10.00
2023-05-10T17:56:42.837Z,10.27
2023-05-10T17:59:09.702Z,40.27
2023-05-10T18:01:36.691Z,21.97
2023-05-10T18:04:04.585Z,41.50
2023-05-10T18:06:32.350Z,13.03
2023-05-10T18:08:59.202Z,9.60
2023-05-10T18:11:26.248Z,28.27
2023-05-10T18:13:53.251Z,7.73
2023-05-10T18:16:20.276Z,8.73
2023-05-10T18:18:47.272Z,11.40
2023-05-10T18:21:14.261Z,6.40
2023-05-10T18:23:41.162Z,7.77
2023-05-10T18:26:08.420Z,7.93
2023-05-10T18:28:36.494Z,5.77
2023-05-10T18:31:03.438Z,5.73
2023-05-10T18:33:30.387Z,11.50
2023-05-10T18:35:57.314Z,22.23
2023-05-10T18:38:24.823Z,14.63
2023-05-10T18:40:51.710Z,65.20
2023-05-10T18:43:18.568Z,17.53
2023-05-10T18:45:45.424Z,15.07
2023-05-10T18:48:12.288Z,5.67
2023-05-10T18:50:39.417Z,6.80
2023-05-10T18:53:06.334Z,6.10
2023-05-10T18:55:33.504Z,7.00
2023-05-10T18:58:00.390Z,6.93
2023-05-10T19:00:27.380Z,6.60
2023-05-10T19:02:54.316Z,5.93
2023-05-10T19:05:21.218Z,7.53
2023-05-10T19:07:48.089Z,10.57
2023-05-10T19:10:15.001Z,18.70
2023-05-10T19:12:41.870Z,12.90
2023-05-10T19:15:10.431Z,9.97
2023-05-10T19:17:37.951Z,9.17
2023-05-10T19:20:06.993Z,9.30
2023-05-10T19:22:47.195Z,7.87
2023-05-10T19:25:21.878Z,7.63
2023-05-10T19:27:48.847Z,6.57
2023-05-10T19:30:15.938Z,7.20
2023-05-10T19:32:44.196Z,13.00
2023-05-10T19:35:13.183Z,8.87
2023-05-10T19:37:40.535Z,11.87
2023-05-10T19:40:08.424Z,8.10
2023-05-10T19:42:35.363Z,8.67
2023-05-10T19:45:02.270Z,8.47
2023-05-10T19:47:29.237Z,7.73
2023-05-10T19:49:56.142Z,10.07
2023-05-10T19:52:23.063Z,7.33
2023-05-10T19:54:49.974Z,8.37
2023-05-10T19:57:17.038Z,10.27
2023-05-10T19:59:43.902Z,9.60
2023-05-10T20:02:10.859Z,17.07
2023-05-10T20:04:37.761Z,15.93
2023-05-10T20:07:04.612Z,15.70
2023-05-10T20:09:31.502Z,9.43
2023-05-10T20:11:59.446Z,10.40
2023-05-10T20:14:26.807Z,10.33
2023-05-10T20:16:53.753Z,8.60
2023-05-10T20:19:20.658Z,9.13
2023-05-10T20:21:47.566Z,8.73
2023-05-10T20:24:14.611Z,8.70
2023-05-10T20:26:41.589Z,8.60
2023-05-10T20:29:09.339Z,12.67
2023-05-10T20:31:36.327Z,9.73
2023-05-10T20:34:03.296Z,9.00
2023-05-10T20:36:31.409Z,10.17
2023-05-10T20:38:58.754Z,11.10
2023-05-10T20:41:25.894Z,11.20
2023-05-10T20:43:52.788Z,10.47
2023-05-10T20:46:19.672Z,10.40
2023-05-10T20:48:46.619Z,10.37
2023-05-10T20:51:13.494Z,10.57
2023-05-10T20:53:40.429Z,19.53
2023-05-10T20:56:07.288Z,12.70
2023-05-10T20:58:34.235Z,11.67
2023-05-10T21:01:02.333Z,10.83
2023-05-10T21:03:29.247Z,10.07
2023-05-10T21:05:56.087Z,10.37
2023-05-10T21:08:22.939Z,10.97
2023-05-10T21:10:49.907Z,10.00
2023-05-10T21:13:17.088Z,10.10
2023-05-10T21:15:43.979Z,11.60
2023-05-10T21:18:10.909Z,10.57
2023-05-10T21:20:37.818Z,9.93
2023-05-10T21:23:04.703Z,10.77
2023-05-10T21:25:31.838Z,11.47
2023-05-10T21:27:58.674Z,10.30
2023-05-10T21:30:25.885Z,11.37
2023-05-10T21:32:53.875Z,10.00
2023-05-10T21:35:20.838Z,10.50
2023-05-10T21:37:47.702Z,12.90
2023-05-10T21:40:14.899Z,11.67
2023-05-10T21:42:42.032Z,11.57
2023-05-10T21:45:09.283Z,11.50
2023-05-10T21:47:36.321Z,10.93
2023-05-10T21:50:03.658Z,11.00
2023-05-10T21:52:30.560Z,10.30
2023-05-10T21:54:57.470Z,11.10
2023-05-10T21:57:24.324Z,10.83
2023-05-10T21:59:51.406Z,10.17
2023-05-10T22:02:18.362Z,10.20
2023-05-10T22:04:45.284Z,9.23
2023-05-10T22:07:12.169Z,10.50
2023-05-10T22:09:39.093Z,10.23
2023-05-10T22:12:06.142Z,9.60
2023-05-10T22:14:32.969Z,10.17
2023-05-10T22:16:59.963Z,9.70
2023-05-10T22:19:27.033Z,9.50
2023-05-10T22:21:54.061Z,9.73
2023-05-10T22:24:21.443Z,10.23
2023-05-10T22:26:48.308Z,10.10
2023-05-10T22:29:15.315Z,9.60
2023-05-10T22:31:42.197Z,10.60
2023-05-10T22:34:09.109Z,11.13
2023-05-10T22:36:36.300Z,11.23
2023-05-10T22:39:03.232Z,10.60
2023-05-10T22:41:30.116Z,10.27
2023-05-10T22:43:56.982Z,11.30
2023-05-10T22:46:23.834Z,9.90
2023-05-10T22:48:50.973Z,9.60
2023-05-10T22:51:17.809Z,9.60
2023-05-10T22:53:45.471Z,10.03
2023-05-10T22:56:12.371Z,11.00
2023-05-10T22:58:39.352Z,9.30
2023-05-10T23:01:06.199Z,10.20
2023-05-10T23:03:33.130Z,10.60
2023-05-10T23:06:00.156Z,10.90
2023-05-10T23:08:27.322Z,10.30
2023-05-10T23:10:54.208Z,9.23
2023-05-10T23:13:21.810Z,9.23
2023-05-10T23:15:50.142Z,9.63
2023-05-10T23:18:17.810Z,9.10
2023-05-10T23:20:45.055Z,9.33
2023-05-10T23:23:12.196Z,12.03
2023-05-10T23:25:39.500Z,11.17
2023-05-10T23:28:06.726Z,10.83
2023-05-10T23:30:33.792Z,10.90
2023-05-10T23:33:01.122Z,10.43
2023-05-10T23:35:28.237Z,10.27
2023-05-10T23:37:55.270Z,10.97
2023-05-10T23:40:22.167Z,10.17
2023-05-10T23:42:49.085Z,12.13
2023-05-10T23:45:16.081Z,11.57
2023-05-10T23:47:43.092Z,11.53
2023-05-10T23:50:10.921Z,10.83
2023-05-10T23:52:37.785Z,10.57
2023-05-10T23:55:05.007Z,10.70
2023-05-10T23:57:31.884Z,11.73
2023-05-10T23:59:58.834Z,12.77
